Dallas, Texas
Traffic Map
Current Weather Conditions
Dallas, Texas
Broken Clouds
Broken Clouds
23°
Feels Like: 23°
Wind Chill: 23° Ceiling: 24000
Heat Index: 23° Visibility: 10mi
Dew Point: 18° Wind: 7mph
Humidity: 76% Direction: 240° (WSW)
Pressure: 29.6in Gusts: 0mph
Raw Report DataKDAL 300253Z 24006KT 10SM FEW070 FEW120 SCT170 BKN240 23/18 A2960 RMK AO2 TSE12 SLP018 OCNL LTGICCG DSNT E TS MOVD NE TCU NW 60000 T02280183 52020
Traffic Incident Summary
Active as of:
Severity:
Category:
InformationThere was an issue retrieving the traffic information for this location. Please try a different location or try again shortly.
Advertisements
Track Severe Weather on mobile